Time;durP1;ratioP1;P1;durP2;ratioP2;P2;SDS_P1;SDS_P2;PMS_P1;PMS_P2;Temp;Humidity;BMP_temperature;BMP_pressure;BME280_temperature;BME280_humidity;BME280_pressure;Samples;Min_cycle;Max_cycle;Signal;HPM_P1;HPM_P2
2021/08/01 00:00:57;;;;;;;;;;;16.20;99.90;;;;;;5046466;28;19912;-72
2021/08/01 00:03:22;;;;;;;;;;;16.30;99.90;;;;;;5049274;28;19912;-74
2021/08/01 00:05:48;;;;;;;;;;;16.30;99.90;;;;;;5032190;28;20323;-73
2021/08/01 00:08:13;;;;;;;;;;;16.20;99.90;;;;;;5050903;28;19912;-72
2021/08/01 00:10:39;;;;;;;;;;;16.20;99.90;;;;;;5026639;28;19917;-72
2021/08/01 00:13:05;;;;;;;;;;;16.20;99.90;;;;;;5046188;28;19999;-74
2021/08/01 00:15:30;;;;;;;;;;;16.20;99.90;;;;;;5031253;28;20020;-72
2021/08/01 00:17:56;;;;;;;;;;;16.20;99.90;;;;;;5049602;28;20280;-72
2021/08/01 00:20:21;;;;;;;;;;;16.20;99.90;;;;;;5042719;28;19916;-73
2021/08/01 00:22:47;;;;;;;;;;;16.20;99.90;;;;;;5032287;28;19912;-72
2021/08/01 00:25:12;;;;;;;;;;;16.20;99.90;;;;;;5025352;28;19920;-73
2021/08/01 00:27:38;;;;;;;;;;;16.10;99.90;;;;;;5032633;28;20416;-73
2021/08/01 00:30:05;;;;;;;;;;;16.10;99.90;;;;;;5033741;28;20007;-73
2021/08/01 00:32:30;;;;;;;;;;;16.10;99.90;;;;;;5031489;28;19921;-72
2021/08/01 00:34:56;;;;;;;;;;;16.10;99.90;;;;;;5044699;28;20424;-73
2021/08/01 00:37:21;;;;;;;;;;;16.10;99.90;;;;;;5029784;28;19983;-75
2021/08/01 00:39:47;;;;;;;;;;;16.10;99.90;;;;;;5049397;28;19921;-72
2021/08/01 00:42:12;;;;;;;;;;;16.10;99.90;;;;;;5026836;28;20372;-74
2021/08/01 00:44:38;;;;;;;;;;;16.10;99.90;;;;;;5025930;28;19928;-74
2021/08/01 00:47:04;;;;;;;;;;;16.00;99.90;;;;;;5045464;28;19917;-73
2021/08/01 00:49:29;;;;;;;;;;;16.10;99.90;;;;;;5048873;28;19956;-74
2021/08/01 00:51:55;;;;;;;;;;;16.10;99.90;;;;;;5027895;28;20292;-74
2021/08/01 00:54:22;;;;;;;;;;;16.10;99.90;;;;;;5044579;28;20327;-72
2021/08/01 00:56:48;;;;;;;;;;;16.10;99.90;;;;;;5049665;28;20404;-73
2021/08/01 00:59:14;;;;;;;;;;;16.00;99.90;;;;;;5043777;28;19978;-73
2021/08/01 01:01:40;;;;;;;;;;;16.00;99.90;;;;;;5030027;28;19963;-73
2021/08/01 01:04:07;;;;;;;;;;;16.00;99.90;;;;;;5029597;28;19912;-73
2021/08/01 01:06:38;;;;;;;;;;;16.00;99.90;;;;;;5039312;28;19959;-73
2021/08/01 01:09:07;;;;;;;;;;;16.00;99.90;;;;;;5044360;28;19936;-73
2021/08/01 01:11:35;;;;;;;;;;;16.00;99.90;;;;;;5046622;28;19920;-73
2021/08/01 01:14:01;;;;;;;;;;;16.00;99.90;;;;;;5043410;28;20420;-73
2021/08/01 01:16:27;;;;;;;;;;;16.00;99.90;;;;;;5033955;28;19917;-72
2021/08/01 01:18:55;;;;;;;;;;;16.00;99.90;;;;;;5025984;28;19928;-73
2021/08/01 01:21:38;;;;;;;;;;;16.00;99.90;;;;;;5028671;28;19959;-73
2021/08/01 01:24:08;;;;;;;;;;;16.00;99.90;;;;;;5028619;28;19920;-73
2021/08/01 01:26:33;;;;;;;;;;;16.00;99.90;;;;;;5024032;28;19913;-73
2021/08/01 01:29:08;;;;;;;;;;;16.00;99.90;;;;;;5025518;28;19924;-75
2021/08/01 01:31:46;;;;;;;;;;;16.10;99.90;;;;;;5024463;28;19967;-73
2021/08/01 01:34:22;;;;;;;;;;;16.10;99.90;;;;;;5026526;28;19921;-73
2021/08/01 01:36:47;;;;;;;;;;;16.00;99.90;;;;;;5029573;28;20347;-73
2021/08/01 01:39:14;;;;;;;;;;;16.10;99.90;;;;;;5022737;28;20013;-73
2021/08/01 01:41:42;;;;;;;;;;;16.10;99.90;;;;;;5026252;28;20340;-73
2021/08/01 01:44:08;;;;;;;;;;;16.10;99.90;;;;;;5026232;28;20004;-74
2021/08/01 01:46:34;;;;;;;;;;;16.10;99.90;;;;;;5026312;28;20333;-73
2021/08/01 01:49:01;;;;;;;;;;;16.10;99.90;;;;;;5024022;28;19913;-73
2021/08/01 01:51:26;;;;;;;;;;;16.10;99.90;;;;;;5029562;28;19928;-74
2021/08/01 01:53:52;;;;;;;;;;;16.10;99.90;;;;;;5031703;28;19921;-75
2021/08/01 01:56:18;;;;;;;;;;;16.10;99.90;;;;;;5023773;28;19921;-75
2021/08/01 01:58:44;;;;;;;;;;;16.10;99.90;;;;;;5023805;28;19939;-74
2021/08/01 02:01:10;;;;;;;;;;;16.10;99.90;;;;;;5029447;28;20000;-74
2021/08/01 02:03:36;;;;;;;;;;;16.10;99.90;;;;;;5029588;28;19922;-72
2021/08/01 02:06:01;;;;;;;;;;;16.10;99.90;;;;;;5025465;28;19917;-73
2021/08/01 02:08:32;;;;;;;;;;;16.20;99.90;;;;;;5029756;28;20369;-73
2021/08/01 02:10:58;;;;;;;;;;;16.20;99.90;;;;;;5027886;28;19917;-73
2021/08/01 02:13:27;;;;;;;;;;;16.20;99.90;;;;;;5025698;28;20004;-72
2021/08/01 02:15:57;;;;;;;;;;;16.20;99.90;;;;;;5027499;28;20373;-73
2021/08/01 02:18:24;;;;;;;;;;;16.20;99.90;;;;;;5029036;28;20080;-72
2021/08/01 02:20:51;;;;;;;;;;;16.20;99.90;;;;;;5048022;28;20384;-72
2021/08/01 02:23:18;;;;;;;;;;;16.20;99.90;;;;;;5046201;28;20039;-74
2021/08/01 02:25:45;;;;;;;;;;;16.20;99.90;;;;;;5028534;28;19971;-73
2021/08/01 02:28:11;;;;;;;;;;;16.20;99.90;;;;;;5041993;28;19920;-73
2021/08/01 02:30:37;;;;;;;;;;;16.20;99.90;;;;;;5047645;28;20004;-72
2021/08/01 02:33:03;;;;;;;;;;;16.20;99.90;;;;;;5023168;28;20004;-72
2021/08/01 02:35:30;;;;;;;;;;;16.20;99.90;;;;;;5027299;28;19924;-72
2021/08/01 02:37:56;;;;;;;;;;;16.20;99.90;;;;;;5046797;28;19969;-73
2021/08/01 02:40:24;;;;;;;;;;;16.20;99.90;;;;;;5046580;28;19913;-72
2021/08/01 02:42:50;;;;;;;;;;;16.20;99.90;;;;;;5029211;28;19917;-72
2021/08/01 02:45:16;;;;;;;;;;;16.20;99.90;;;;;;5040732;28;19913;-72
2021/08/01 02:47:42;;;;;;;;;;;16.20;99.90;;;;;;5044292;28;19960;-72
2021/08/01 02:50:09;;;;;;;;;;;16.20;99.90;;;;;;5030120;28;19913;-72
2021/08/01 02:52:39;;;;;;;;;;;16.30;99.90;;;;;;5046710;28;19913;-73
2021/08/01 02:55:05;;;;;;;;;;;16.20;99.90;;;;;;5043602;28;19913;-73
2021/08/01 02:57:31;;;;;;;;;;;16.20;99.90;;;;;;5047788;28;20369;-72
2021/08/01 02:59:59;;;;;;;;;;;16.20;99.90;;;;;;5050545;28;19920;-72
2021/08/01 03:02:25;;;;;;;;;;;16.20;99.90;;;;;;5035895;28;19912;-74
2021/08/01 03:04:51;;;;;;;;;;;16.20;99.90;;;;;;5050449;28;19928;-74
2021/08/01 03:07:17;;;;;;;;;;;16.20;99.90;;;;;;5047143;28;20003;-72
2021/08/01 03:09:42;;;;;;;;;;;16.20;99.90;;;;;;5029658;28;20000;-73
2021/08/01 03:12:09;;;;;;;;;;;16.20;99.90;;;;;;5045249;28;19912;-74
2021/08/01 03:14:35;;;;;;;;;;;16.30;99.90;;;;;;5044862;28;20254;-72
2021/08/01 03:17:00;;;;;;;;;;;16.30;99.90;;;;;;5054079;28;19939;-72
2021/08/01 03:19:26;;;;;;;;;;;16.30;99.90;;;;;;5048746;28;19920;-72
2021/08/01 03:21:51;;;;;;;;;;;16.20;99.90;;;;;;5047688;28;19913;-73
2021/08/01 03:24:16;;;;;;;;;;;16.20;99.90;;;;;;5049489;28;20066;-72
2021/08/01 03:26:42;;;;;;;;;;;16.20;99.90;;;;;;5025762;28;19913;-72
2021/08/01 03:29:07;;;;;;;;;;;16.20;99.90;;;;;;5030680;28;20277;-73
2021/08/01 03:31:33;;;;;;;;;;;16.20;99.90;;;;;;5031330;28;19913;-72
2021/08/01 03:33:58;;;;;;;;;;;16.20;99.90;;;;;;5031862;28;19923;-73
2021/08/01 03:36:24;;;;;;;;;;;16.20;99.90;;;;;;5051240;28;19920;-72
2021/08/01 03:38:49;;;;;;;;;;;16.20;99.90;;;;;;5051123;28;19960;-73
2021/08/01 03:41:15;;;;;;;;;;;16.30;99.90;;;;;;5027073;28;19920;-73
2021/08/01 03:43:40;;;;;;;;;;;16.20;99.90;;;;;;5022174;28;19913;-73
2021/08/01 03:46:06;;;;;;;;;;;16.20;99.90;;;;;;5048541;28;20323;-75
2021/08/01 03:48:33;;;;;;;;;;;16.20;99.90;;;;;;5025922;28;19912;-73
2021/08/01 03:50:59;;;;;;;;;;;16.20;99.90;;;;;;5048491;28;19917;-74
2021/08/01 03:53:24;;;;;;;;;;;16.20;99.90;;;;;;5050776;28;20015;-74
2021/08/01 03:55:50;;;;;;;;;;;16.30;99.90;;;;;;5040886;28;19959;-73
2021/08/01 03:58:15;;;;;;;;;;;16.20;99.90;;;;;;5048129;28;20412;-73
2021/08/01 04:00:47;;;;;;;;;;;16.10;99.90;;;;;;5040271;28;19927;-71
2021/08/01 04:03:13;;;;;;;;;;;16.20;99.90;;;;;;5045153;28;19917;-71
2021/08/01 04:05:38;;;;;;;;;;;16.20;99.90;;;;;;5050316;28;20281;-73
2021/08/01 04:08:04;;;;;;;;;;;16.20;99.90;;;;;;5047685;28;19920;-74
2021/08/01 04:10:29;;;;;;;;;;;16.20;99.90;;;;;;5048454;28;19948;-72
2021/08/01 04:12:55;;;;;;;;;;;16.20;99.90;;;;;;5045767;28;20280;-75
2021/08/01 04:15:20;;;;;;;;;;;16.20;99.90;;;;;;5026454;28;19971;-73
2021/08/01 04:17:46;;;;;;;;;;;16.20;99.90;;;;;;5045652;28;20426;-73
2021/08/01 04:20:11;;;;;;;;;;;16.10;99.90;;;;;;5040764;28;19921;-73
2021/08/01 04:22:37;;;;;;;;;;;16.20;99.90;;;;;;5031779;28;19936;-73
2021/08/01 04:25:03;;;;;;;;;;;16.20;99.90;;;;;;5031633;28;19913;-73
2021/08/01 04:27:28;;;;;;;;;;;16.10;99.90;;;;;;5028284;28;20386;-72
2021/08/01 04:29:54;;;;;;;;;;;16.10;99.90;;;;;;5045817;28;19927;-73
2021/08/01 04:32:19;;;;;;;;;;;16.10;99.90;;;;;;5051088;28;19921;-73
2021/08/01 04:34:45;;;;;;;;;;;16.10;99.90;;;;;;5029520;28;19921;-73
2021/08/01 04:37:10;;;;;;;;;;;16.10;99.90;;;;;;5026964;28;19920;-73
2021/08/01 04:39:36;;;;;;;;;;;16.10;99.90;;;;;;5027131;28;19936;-73
2021/08/01 04:42:01;;;;;;;;;;;16.00;99.90;;;;;;5032525;28;19928;-74
2021/08/01 04:44:27;;;;;;;;;;;16.00;99.90;;;;;;5052351;28;19990;-73
2021/08/01 04:46:52;;;;;;;;;;;16.10;99.90;;;;;;5035723;28;19967;-74
2021/08/01 04:49:18;;;;;;;;;;;16.10;99.90;;;;;;5032082;28;20019;-74
2021/08/01 04:51:43;;;;;;;;;;;16.10;99.90;;;;;;5035200;28;20344;-72
2021/08/01 04:54:09;;;;;;;;;;;16.10;99.90;;;;;;5052424;28;19917;-73
2021/08/01 04:56:34;;;;;;;;;;;16.10;99.90;;;;;;5054963;28;19916;-73
2021/08/01 04:59:03;;;;;;;;;;;16.10;99.90;;;;;;5046320;28;19968;-73
2021/08/01 05:01:28;;;;;;;;;;;16.20;99.90;;;;;;5069368;28;19901;-73
2021/08/01 05:03:54;;;;;;;;;;;16.10;99.90;;;;;;5073825;28;19927;-74
2021/08/01 05:06:19;;;;;;;;;;;16.20;99.90;;;;;;5055418;28;19944;-73
2021/08/01 05:08:44;;;;;;;;;;;16.20;99.90;;;;;;5055094;28;19913;-74
2021/08/01 05:11:10;;;;;;;;;;;16.20;99.90;;;;;;5074315;28;19920;-75
2021/08/01 05:13:35;;;;;;;;;;;16.30;99.90;;;;;;5072175;28;19932;-75
2021/08/01 05:16:01;;;;;;;;;;;16.30;99.90;;;;;;5071133;28;19913;-72
2021/08/01 05:18:26;;;;;;;;;;;16.30;99.90;;;;;;5039814;28;19923;-76
2021/08/01 05:20:52;;;;;;;;;;;16.40;99.90;;;;;;5057033;28;19923;-73
2021/08/01 05:23:18;;;;;;;;;;;16.40;99.90;;;;;;5036486;28;19913;-75
2021/08/01 05:25:43;;;;;;;;;;;16.40;99.90;;;;;;5055928;28;19913;-74
2021/08/01 05:28:09;;;;;;;;;;;16.40;99.90;;;;;;5032841;28;20003;-73
2021/08/01 05:30:34;;;;;;;;;;;16.40;99.90;;;;;;5035104;28;19913;-73
2021/08/01 05:33:06;;;;;;;;;;;16.40;99.90;;;;;;5052155;28;19920;-73
2021/08/01 05:35:32;;;;;;;;;;;16.40;99.90;;;;;;5053289;28;20015;-73
2021/08/01 05:37:57;;;;;;;;;;;16.50;99.90;;;;;;5049372;28;20388;-73
2021/08/01 05:40:23;;;;;;;;;;;16.50;99.90;;;;;;5052539;28;19912;-73
2021/08/01 05:42:48;;;;;;;;;;;16.60;99.90;;;;;;5048205;28;19921;-75
2021/08/01 05:45:14;;;;;;;;;;;16.50;99.90;;;;;;5050590;28;20391;-74
2021/08/01 05:47:39;;;;;;;;;;;16.50;99.90;;;;;;5033772;28;19912;-74
2021/08/01 05:50:05;;;;;;;;;;;16.40;99.90;;;;;;5052139;28;19939;-74
2021/08/01 05:52:31;;;;;;;;;;;16.50;99.90;;;;;;5052003;28;19913;-74
2021/08/01 05:54:56;;;;;;;;;;;16.50;99.90;;;;;;5051847;28;20487;-74
2021/08/01 05:57:22;;;;;;;;;;;16.50;99.90;;;;;;5033052;28;19913;-73
2021/08/01 05:59:47;;;;;;;;;;;16.50;99.90;;;;;;5032391;28;20316;-73
2021/08/01 06:02:13;;;;;;;;;;;16.60;99.90;;;;;;5032813;28;19913;-73
2021/08/01 06:04:41;;;;;;;;;;;16.60;99.90;;;;;;5033098;28;20443;-73
2021/08/01 06:07:10;;;;;;;;;;;16.60;99.90;;;;;;5034184;28;19916;-73
2021/08/01 06:09:47;;;;;;;;;;;16.50;99.90;;;;;;5033871;28;20320;-74
2021/08/01 06:12:13;;;;;;;;;;;16.50;99.90;;;;;;5030980;28;19921;-73
2021/08/01 06:14:39;;;;;;;;;;;16.50;99.90;;;;;;5050991;28;19913;-75
2021/08/01 06:17:04;;;;;;;;;;;16.60;99.90;;;;;;5050858;28;20383;-72
2021/08/01 06:19:30;;;;;;;;;;;16.60;99.90;;;;;;5049895;28;19928;-73
2021/08/01 06:21:56;;;;;;;;;;;16.60;99.90;;;;;;5033819;28;19916;-72
2021/08/01 06:24:21;;;;;;;;;;;16.60;99.90;;;;;;5030835;28;19913;-72
2021/08/01 06:26:47;;;;;;;;;;;16.60;99.90;;;;;;5033486;28;19921;-72
2021/08/01 06:29:12;;;;;;;;;;;16.60;99.90;;;;;;5033308;28;20016;-73
2021/08/01 06:31:38;;;;;;;;;;;16.60;99.90;;;;;;5034224;28;19913;-72
2021/08/01 06:34:03;;;;;;;;;;;16.60;99.90;;;;;;5055455;28;19920;-73
2021/08/01 06:36:29;;;;;;;;;;;16.60;99.90;;;;;;5055241;28;19924;-73
2021/08/01 06:38:54;;;;;;;;;;;16.70;99.90;;;;;;5036700;28;19924;-72
2021/08/01 06:41:20;;;;;;;;;;;16.80;99.90;;;;;;5037480;28;19912;-73
2021/08/01 06:43:45;;;;;;;;;;;16.90;99.90;;;;;;5037855;28;19917;-72
2021/08/01 06:46:11;;;;;;;;;;;16.90;99.90;;;;;;5034476;28;19913;-73
2021/08/01 06:48:39;;;;;;;;;;;16.90;99.90;;;;;;5037820;28;19920;-72
2021/08/01 06:51:05;;;;;;;;;;;16.90;99.90;;;;;;5034709;28;19947;-71
2021/08/01 06:53:31;;;;;;;;;;;17.00;99.90;;;;;;5052098;28;19917;-74
2021/08/01 06:55:56;;;;;;;;;;;17.00;99.90;;;;;;5036270;28;20013;-73
2021/08/01 06:58:22;;;;;;;;;;;16.90;99.90;;;;;;5055115;28;20351;-73
2021/08/01 07:00:48;;;;;;;;;;;17.00;99.90;;;;;;5037250;28;19913;-72
2021/08/01 07:03:14;;;;;;;;;;;17.10;99.90;;;;;;5036929;28;19913;-73
2021/08/01 07:05:39;;;;;;;;;;;17.10;99.90;;;;;;5037352;28;19923;-72
2021/08/01 07:08:05;;;;;;;;;;;17.20;99.90;;;;;;5049948;28;19949;-72
2021/08/01 07:10:30;;;;;;;;;;;17.20;99.90;;;;;;5053685;28;19917;-72
2021/08/01 07:13:00;;;;;;;;;;;17.30;99.90;;;;;;5036578;28;19913;-73
2021/08/01 07:15:26;;;;;;;;;;;17.40;99.90;;;;;;5054258;28;19913;-73
2021/08/01 07:17:55;;;;;;;;;;;17.50;99.90;;;;;;5055007;28;19920;-73
2021/08/01 07:20:21;;;;;;;;;;;17.60;99.90;;;;;;5051390;28;19921;-72
2021/08/01 07:22:47;;;;;;;;;;;17.80;99.90;;;;;;5033152;28;19913;-72
2021/08/01 07:25:12;;;;;;;;;;;17.90;99.90;;;;;;5036217;28;20284;-73
2021/08/01 07:27:38;;;;;;;;;;;18.00;99.90;;;;;;5033981;28;19948;-73
2021/08/01 07:30:04;;;;;;;;;;;18.00;99.90;;;;;;5036505;28;19912;-75
2021/08/01 07:32:29;;;;;;;;;;;18.10;99.90;;;;;;5050454;28;19920;-72
2021/08/01 07:34:55;;;;;;;;;;;18.10;99.90;;;;;;5053031;28;19982;-73
2021/08/01 07:37:20;;;;;;;;;;;18.10;99.90;;;;;;5052829;28;19914;-72
2021/08/01 07:39:46;;;;;;;;;;;18.20;99.90;;;;;;5032554;28;19917;-72
2021/08/01 07:42:11;;;;;;;;;;;18.20;99.90;;;;;;5049740;28;19970;-72
2021/08/01 07:44:49;;;;;;;;;;;18.20;99.90;;;;;;5033692;28;19913;-75
2021/08/01 07:47:16;;;;;;;;;;;18.10;99.90;;;;;;5036793;28;20312;-73
2021/08/01 07:49:41;;;;;;;;;;;18.10;99.90;;;;;;5052156;28;19921;-74
2021/08/01 07:52:07;;;;;;;;;;;18.20;99.90;;;;;;5053754;28;19934;-74
2021/08/01 07:54:33;;;;;;;;;;;18.30;99.90;;;;;;5050789;28;19913;-73
2021/08/01 07:56:58;;;;;;;;;;;18.60;99.90;;;;;;5035473;28;19982;-73
2021/08/01 07:59:24;;;;;;;;;;;18.80;99.90;;;;;;5033515;28;19917;-73
2021/08/01 08:01:50;;;;;;;;;;;18.90;99.90;;;;;;5054161;28;19921;-72
2021/08/01 08:04:15;;;;;;;;;;;18.90;99.90;;;;;;5051484;28;19924;-73
2021/08/01 08:06:41;;;;;;;;;;;18.90;99.90;;;;;;5053288;28;19920;-73
2021/08/01 08:09:06;;;;;;;;;;;19.00;99.90;;;;;;5054399;28;19924;-72
2021/08/01 08:11:32;;;;;;;;;;;19.00;99.90;;;;;;5053127;28;20296;-73
2021/08/01 08:13:57;;;;;;;;;;;19.00;99.90;;;;;;5050927;28;19957;-73
2021/08/01 08:16:23;;;;;;;;;;;19.20;99.90;;;;;;5054509;28;19913;-73
2021/08/01 08:18:50;;;;;;;;;;;19.70;99.90;;;;;;5028417;28;19921;-73
2021/08/01 08:21:16;;;;;;;;;;;20.30;99.90;;;;;;5052417;28;19952;-73
2021/08/01 08:23:41;;;;;;;;;;;20.70;99.90;;;;;;5051123;28;19920;-73
2021/08/01 08:26:07;;;;;;;;;;;20.80;99.90;;;;;;5051404;28;19913;-73
2021/08/01 08:28:32;;;;;;;;;;;20.70;99.90;;;;;;5032094;28;19913;-76
2021/08/01 08:30:59;;;;;;;;;;;20.50;99.90;;;;;;5050381;28;19939;-73
2021/08/01 08:33:24;;;;;;;;;;;20.30;99.90;;;;;;5051228;28;19948;-74
2021/08/01 08:35:50;;;;;;;;;;;20.10;99.90;;;;;;5051645;28;19956;-73
2021/08/01 08:38:15;;;;;;;;;;;19.90;99.90;;;;;;5051878;28;20488;-73
2021/08/01 08:40:41;;;;;;;;;;;19.90;99.90;;;;;;5034290;28;19920;-72
2021/08/01 08:43:07;;;;;;;;;;;19.60;99.90;;;;;;5051833;28;19938;-72
2021/08/01 08:45:33;;;;;;;;;;;19.50;99.90;;;;;;5053016;28;20284;-72
2021/08/01 08:47:59;;;;;;;;;;;19.40;99.90;;;;;;5035022;28;19963;-73
2021/08/01 08:50:24;;;;;;;;;;;19.20;99.90;;;;;;5031902;28;20345;-74
2021/08/01 08:52:55;;;;;;;;;;;19.00;99.90;;;;;;5052865;28;19920;-74
2021/08/01 08:55:24;;;;;;;;;;;18.90;99.90;;;;;;5054798;28;19913;-74
2021/08/01 08:57:51;;;;;;;;;;;18.70;99.90;;;;;;5055225;28;19924;-75
2021/08/01 09:00:19;;;;;;;;;;;18.50;99.90;;;;;;5051314;28;19913;-73
2021/08/01 09:02:44;;;;;;;;;;;18.30;99.90;;;;;;5048097;28;19913;-73
2021/08/01 09:05:10;;;;;;;;;;;18.20;99.90;;;;;;5045038;28;20019;-73
2021/08/01 09:07:38;;;;;;;;;;;18.20;99.90;;;;;;5054768;28;20074;-74
2021/08/01 09:10:05;;;;;;;;;;;18.20;99.90;;;;;;5057780;28;19913;-74
2021/08/01 09:12:30;;;;;;;;;;;18.10;99.90;;;;;;5058186;28;19964;-74
2021/08/01 09:15:08;;;;;;;;;;;18.10;99.90;;;;;;5040795;28;19913;-76
2021/08/01 09:17:35;;;;;;;;;;;18.10;99.90;;;;;;5054026;28;19932;-74
2021/08/01 09:20:16;;;;;;;;;;;18.10;99.90;;;;;;5036869;28;19920;-74
2021/08/01 09:22:42;;;;;;;;;;;18.20;99.90;;;;;;5054825;28;19944;-75
2021/08/01 09:25:27;;;;;;;;;;;18.20;99.90;;;;;;5054940;28;19967;-73
2021/08/01 09:27:53;;;;;;;;;;;18.40;99.90;;;;;;5050519;28;19955;-73
2021/08/01 09:30:18;;;;;;;;;;;18.40;99.90;;;;;;5038994;28;19964;-73
2021/08/01 09:32:47;;;;;;;;;;;18.30;99.90;;;;;;5053179;28;19913;-74
2021/08/01 09:35:22;;;;;;;;;;;18.30;99.90;;;;;;5051810;28;19913;-72
2021/08/01 09:37:58;;;;;;;;;;;18.30;99.90;;;;;;5051491;28;19999;-73
2021/08/01 09:40:28;;;;;;;;;;;18.20;99.90;;;;;;5048383;28;20360;-72
2021/08/01 09:42:53;;;;;;;;;;;18.20;99.90;;;;;;5049849;28;20004;-72
2021/08/01 09:45:20;;;;;;;;;;;18.20;99.90;;;;;;5051848;28;19952;-72
2021/08/01 09:47:48;;;;;;;;;;;18.00;99.90;;;;;;5036791;28;19917;-73
2021/08/01 09:50:14;;;;;;;;;;;17.90;99.90;;;;;;5053464;28;19913;-71
2021/08/01 09:52:40;;;;;;;;;;;17.80;99.90;;;;;;5036353;28;19913;-72
2021/08/01 09:55:14;;;;;;;;;;;17.70;99.90;;;;;;5052507;28;19979;-72
2021/08/01 09:57:47;;;;;;;;;;;17.80;99.90;;;;;;5040550;28;19913;-72
2021/08/01 10:00:13;;;;;;;;;;;17.90;99.90;;;;;;5045381;28;20313;-73
2021/08/01 10:02:39;;;;;;;;;;;18.00;99.90;;;;;;5052090;28;19951;-74
2021/08/01 10:05:13;;;;;;;;;;;18.30;99.90;;;;;;5047943;28;19959;-73
2021/08/01 10:07:41;;;;;;;;;;;18.70;99.90;;;;;;5034967;28;19924;-73
2021/08/01 10:10:15;;;;;;;;;;;18.90;99.90;;;;;;5056215;28;20292;-73
2021/08/01 10:12:43;;;;;;;;;;;19.30;99.90;;;;;;5056235;28;19913;-74
2021/08/01 10:15:09;;;;;;;;;;;19.30;99.90;;;;;;5057568;28;20299;-73
2021/08/01 10:17:34;;;;;;;;;;;19.30;99.90;;;;;;5055195;28;20015;-73
2021/08/01 10:20:00;;;;;;;;;;;19.20;99.90;;;;;;5037053;28;19921;-73
2021/08/01 10:22:26;;;;;;;;;;;19.20;99.90;;;;;;5053518;28;19913;-73
2021/08/01 10:24:56;;;;;;;;;;;19.30;99.90;;;;;;5047099;28;20381;-73
2021/08/01 10:27:21;;;;;;;;;;;19.40;99.90;;;;;;5054180;28;19912;-73
2021/08/01 10:29:48;;;;;;;;;;;19.40;99.90;;;;;;5055770;28;19920;-72
2021/08/01 10:32:16;;;;;;;;;;;19.10;99.90;;;;;;5038084;28;19982;-73
2021/08/01 10:34:45;;;;;;;;;;;19.00;99.90;;;;;;5052698;28;19921;-73
2021/08/01 10:37:14;;;;;;;;;;;19.00;99.90;;;;;;5054985;28;19913;-72
2021/08/01 10:39:41;;;;;;;;;;;19.00;99.90;;;;;;5054801;28;19923;-73
2021/08/01 10:42:09;;;;;;;;;;;19.00;99.90;;;;;;5051682;28;19921;-72
2021/08/01 10:44:36;;;;;;;;;;;19.00;99.90;;;;;;5037062;28;20422;-72
2021/08/01 10:47:11;;;;;;;;;;;19.10;99.90;;;;;;5035969;28;19958;-74
2021/08/01 10:49:38;;;;;;;;;;;19.30;99.90;;;;;;5048068;28;19920;-72
2021/08/01 10:52:27;;;;;;;;;;;19.40;99.90;;;;;;5035827;28;19974;-74
2021/08/01 10:55:00;;;;;;;;;;;19.50;99.90;;;;;;5031280;28;19935;-71
2021/08/01 10:57:26;;;;;;;;;;;19.60;99.90;;;;;;5048007;28;19913;-74
2021/08/01 10:59:56;;;;;;;;;;;19.60;99.90;;;;;;5052925;28;19917;-72
2021/08/01 11:02:25;;;;;;;;;;;19.70;99.90;;;;;;5033738;28;19919;-72
2021/08/01 11:04:51;;;;;;;;;;;19.80;99.90;;;;;;5048754;28;20062;-73
2021/08/01 11:07:26;;;;;;;;;;;20.00;99.90;;;;;;5030406;28;20387;-72
2021/08/01 11:10:04;;;;;;;;;;;20.00;99.90;;;;;;5052107;28;19912;-72
2021/08/01 11:12:41;;;;;;;;;;;20.00;99.90;;;;;;5030447;28;19943;-73
2021/08/01 11:15:10;;;;;;;;;;;19.80;99.90;;;;;;5033346;28;19912;-72
2021/08/01 11:17:49;;;;;;;;;;;19.60;99.90;;;;;;5051385;28;19913;-72
2021/08/01 11:20:14;;;;;;;;;;;19.50;99.90;;;;;;5032979;28;19921;-72
2021/08/01 11:22:40;;;;;;;;;;;19.00;99.90;;;;;;5033586;28;19913;-75
2021/08/01 11:25:24;;;;;;;;;;;18.50;99.90;;;;;;5033039;28;19975;-78
2021/08/01 11:28:51;;;;;;;;;;;18.10;99.90;;;;;;5034362;28;19916;-76
2021/08/01 11:30:57;;;;;;;;;;;17.80;99.90;;;;;;5035143;28;19999;-76
2021/08/01 11:33:45;;;;;;;;;;;17.70;99.90;;;;;;5034514;28;20352;-76
2021/08/01 11:36:11;;;;;;;;;;;17.60;99.90;;;;;;5050704;28;19912;-76
2021/08/01 11:38:52;;;;;;;;;;;17.60;99.90;;;;;;5033937;28;19917;-76
2021/08/01 11:41:30;;;;;;;;;;;17.60;99.90;;;;;;5030665;28;19917;-75
2021/08/01 11:44:02;;;;;;;;;;;17.60;99.90;;;;;;5034045;28;20376;-76
2021/08/01 11:46:29;;;;;;;;;;;17.70;99.90;;;;;;5052792;28;19920;-75
2021/08/01 11:48:59;;;;;;;;;;;17.80;99.90;;;;;;5047360;28;20294;-76
2021/08/01 11:51:26;;;;;;;;;;;17.80;99.90;;;;;;5047762;28;20062;-76
2021/08/01 11:53:51;;;;;;;;;;;17.80;99.90;;;;;;5028460;28;19998;-76
2021/08/01 11:56:18;;;;;;;;;;;17.80;99.90;;;;;;5049757;28;19971;-74
2021/08/01 11:58:44;;;;;;;;;;;17.90;99.90;;;;;;5031584;28;20291;-77
2021/08/01 12:01:10;;;;;;;;;;;18.20;99.90;;;;;;5046195;28;19920;-75
2021/08/01 12:03:36;;;;;;;;;;;18.30;99.90;;;;;;5032285;28;19913;-75
2021/08/01 12:06:01;;;;;;;;;;;18.60;99.90;;;;;;5028167;28;19920;-75
2021/08/01 12:08:27;;;;;;;;;;;18.70;99.90;;;;;;5026223;28;19921;-75
2021/08/01 12:11:10;;;;;;;;;;;18.70;99.90;;;;;;5047270;28;19959;-75
2021/08/01 12:13:35;;;;;;;;;;;18.80;99.90;;;;;;5029910;28;19912;-76
2021/08/01 12:16:01;;;;;;;;;;;18.80;99.90;;;;;;5044433;28;19913;-76
2021/08/01 12:18:27;;;;;;;;;;;18.90;99.90;;;;;;5030814;28;19917;-76
2021/08/01 12:20:52;;;;;;;;;;;19.00;99.90;;;;;;5030528;28;19927;-76
2021/08/01 12:23:18;;;;;;;;;;;19.10;99.90;;;;;;5044338;28;19921;-77
2021/08/01 12:25:52;;;;;;;;;;;19.10;99.90;;;;;;5047855;28;19931;-77
2021/08/01 12:28:18;;;;;;;;;;;19.10;99.90;;;;;;5047696;28;19920;-74
2021/08/01 12:30:48;;;;;;;;;;;19.10;99.90;;;;;;5031246;28;19920;-74
2021/08/01 12:33:14;;;;;;;;;;;18.90;99.90;;;;;;5044211;28;19920;-78
2021/08/01 12:35:40;;;;;;;;;;;18.50;99.90;;;;;;5031224;28;19974;-76
2021/08/01 12:38:08;;;;;;;;;;;18.30;99.90;;;;;;5049310;28;20311;-77
2021/08/01 12:40:37;;;;;;;;;;;18.20;99.90;;;;;;5027291;28;19995;-78
2021/08/01 12:43:05;;;;;;;;;;;18.30;99.90;;;;;;5046008;28;19962;-77
2021/08/01 12:45:38;;;;;;;;;;;18.30;99.90;;;;;;5046684;28;19919;-77
2021/08/01 12:48:07;;;;;;;;;;;18.30;99.90;;;;;;5041434;28;19952;-78
2021/08/01 12:50:33;;;;;;;;;;;18.20;99.90;;;;;;5023466;28;19963;-76
2021/08/01 12:55:43;;;;;;;;;;;18.20;99.90;;;;;;5045655;28;19937;-76
2021/08/01 12:58:09;;;;;;;;;;;18.30;99.90;;;;;;5044433;28;19920;-76
2021/08/01 13:00:36;;;;;;;;;;;18.60;99.90;;;;;;5045562;28;19951;-75
2021/08/01 13:03:03;;;;;;;;;;;18.90;99.90;;;;;;5027209;28;20321;-75
2021/08/01 13:05:30;;;;;;;;;;;18.80;99.90;;;;;;5045586;28;19916;-76
2021/08/01 13:07:57;;;;;;;;;;;18.70;99.90;;;;;;5027719;28;19913;-76
2021/08/01 13:10:23;;;;;;;;;;;18.50;99.90;;;;;;5026575;28;19917;-75
2021/08/01 13:13:10;;;;;;;;;;;18.40;99.90;;;;;;5051357;28;19923;-75
2021/08/01 13:15:37;;;;;;;;;;;18.30;99.90;;;;;;5030678;28;19917;-74
2021/08/01 13:18:04;;;;;;;;;;;18.40;99.90;;;;;;5045407;28;19996;-75
2021/08/01 13:20:31;;;;;;;;;;;18.50;99.90;;;;;;5027335;28;19920;-74
2021/08/01 13:22:57;;;;;;;;;;;18.50;99.90;;;;;;5050062;28;19913;-73
2021/08/01 13:25:31;;;;;;;;;;;18.50;99.90;;;;;;5021007;28;19961;-74
2021/08/01 13:27:57;;;;;;;;;;;18.30;99.90;;;;;;5030857;28;19913;-76
2021/08/01 13:30:24;;;;;;;;;;;18.30;99.90;;;;;;5046259;28;20372;-76
2021/08/01 13:32:49;;;;;;;;;;;18.40;99.90;;;;;;5045310;28;19923;-74
2021/08/01 13:35:25;;;;;;;;;;;18.60;99.90;;;;;;5043419;28;19912;-74
2021/08/01 13:38:04;;;;;;;;;;;18.60;99.90;;;;;;5042685;28;19913;-74
2021/08/01 13:40:38;;;;;;;;;;;18.80;99.90;;;;;;5026834;28;20357;-74
2021/08/01 13:43:14;;;;;;;;;;;18.80;99.90;;;;;;5030287;28;20003;-74
2021/08/01 13:45:39;;;;;;;;;;;18.90;99.90;;;;;;5031944;28;20399;-74
2021/08/01 13:48:05;;;;;;;;;;;19.10;99.90;;;;;;5049375;28;19915;-73
2021/08/01 13:50:31;;;;;;;;;;;19.40;99.90;;;;;;5051938;28;19995;-74
2021/08/01 13:52:57;;;;;;;;;;;19.50;99.90;;;;;;5045627;28;20376;-74
2021/08/01 13:55:23;;;;;;;;;;;19.70;99.90;;;;;;5050409;28;19913;-74
2021/08/01 13:57:59;;;;;;;;;;;19.70;99.90;;;;;;5049080;28;19917;-75
2021/08/01 14:00:24;;;;;;;;;;;19.50;99.90;;;;;;5053695;28;19917;-75
2021/08/01 14:02:50;;;;;;;;;;;19.20;99.90;;;;;;5054009;28;19920;-74
2021/08/01 14:05:15;;;;;;;;;;;19.00;99.90;;;;;;5050894;28;19920;-75
2021/08/01 14:07:41;;;;;;;;;;;18.90;99.90;;;;;;5054652;28;19938;-75
2021/08/01 14:10:07;;;;;;;;;;;19.20;99.90;;;;;;5054943;28;19952;-74
2021/08/01 14:12:32;;;;;;;;;;;19.30;99.90;;;;;;5035999;28;19913;-74
2021/08/01 14:14:58;;;;;;;;;;;19.30;99.90;;;;;;5037855;28;19923;-74
2021/08/01 14:17:24;;;;;;;;;;;19.30;99.90;;;;;;5031142;28;19921;-73
2021/08/01 14:19:49;;;;;;;;;;;19.30;99.90;;;;;;5049976;28;20419;-73